createdAt,value
2023-02-05T00:01:10.400Z,-10.00
2023-02-05T00:03:39.286Z,-10.00
2023-02-05T00:06:09.440Z,-10.00
2023-02-05T00:08:37.586Z,-9.90
2023-02-05T00:11:09.701Z,-9.90
2023-02-05T00:13:38.349Z,-9.80
2023-02-05T00:16:10.594Z,-9.80
2023-02-05T00:18:38.934Z,-9.50
2023-02-05T00:21:09.867Z,-9.50
2023-02-05T00:23:39.124Z,-9.50
2023-02-05T00:26:08.272Z,-9.40
2023-02-05T00:28:37.997Z,-9.40
2023-02-05T00:31:09.956Z,-9.40
2023-02-05T00:33:38.556Z,-9.30
2023-02-05T00:36:10.919Z,-9.30
2023-02-05T00:38:40.979Z,-9.20
2023-02-05T00:41:10.130Z,-9.30
2023-02-05T00:43:38.276Z,-9.30
2023-02-05T00:46:07.329Z,-9.30
2023-02-05T00:48:35.981Z,-9.30
2023-02-05T00:51:04.364Z,-9.30
2023-02-05T00:53:34.603Z,-9.10
2023-02-05T00:56:03.418Z,-9.10
2023-02-05T00:58:31.752Z,-9.10
2023-02-05T01:01:00.064Z,-9.00
2023-02-05T01:03:28.428Z,-8.70
2023-02-05T01:05:57.078Z,-8.30
2023-02-05T01:08:25.622Z,-8.10
2023-02-05T01:10:56.869Z,-7.90
2023-02-05T01:13:25.113Z,-7.90
2023-02-05T01:15:53.221Z,-7.80
2023-02-05T01:18:21.600Z,-7.90
2023-02-05T01:20:49.733Z,-7.90
2023-02-05T01:23:18.303Z,-8.00
2023-02-05T01:25:47.111Z,-7.90
2023-02-05T01:28:16.801Z,-7.90
2023-02-05T01:30:49.272Z,-7.80
2023-02-05T01:33:17.827Z,-7.70
2023-02-05T01:35:46.585Z,-7.60
2023-02-05T01:38:15.689Z,-7.60
2023-02-05T01:40:44.011Z,-7.60
2023-02-05T01:43:14.418Z,-7.50
2023-02-05T01:46:04.858Z,-7.50
2023-02-05T01:48:39.638Z,-7.40
2023-02-05T01:51:11.749Z,-7.10
2023-02-05T01:53:40.669Z,-7.00
2023-02-05T01:56:13.976Z,-6.90
2023-02-05T01:58:45.182Z,-6.80
2023-02-05T02:01:15.373Z,-6.80
2023-02-05T02:03:43.792Z,-6.80
2023-02-05T02:06:12.166Z,-6.80
2023-02-05T02:08:40.709Z,-6.70
2023-02-05T02:11:12.122Z,-6.70
2023-02-05T02:13:41.000Z,-6.60
2023-02-05T02:16:10.626Z,-6.60
2023-02-05T02:18:40.578Z,-6.50
2023-02-05T02:21:34.552Z,-6.50
2023-02-05T02:24:18.632Z,-6.50
2023-02-05T02:27:11.311Z,-6.50
2023-02-05T02:29:47.864Z,-6.50
2023-02-05T02:32:20.973Z,-6.40
2023-02-05T02:34:55.045Z,-6.40
2023-02-05T02:37:30.632Z,-6.30
2023-02-05T02:40:03.118Z,-6.20
2023-02-05T02:42:38.000Z,-6.20
2023-02-05T02:45:11.132Z,-6.10
2023-02-05T02:47:46.236Z,-6.10
2023-02-05T02:50:20.137Z,-6.10
2023-02-05T02:52:49.975Z,-6.10
2023-02-05T02:55:20.635Z,-6.10
2023-02-05T02:57:52.808Z,-6.20
2023-02-05T03:00:26.233Z,-6.10
2023-02-05T03:03:01.444Z,-6.10
2023-02-05T03:05:32.744Z,-6.10
2023-02-05T03:08:05.892Z,-6.00
2023-02-05T03:10:41.058Z,-6.00
2023-02-05T03:13:10.135Z,-5.90
2023-02-05T03:15:42.490Z,-5.80
2023-02-05T03:18:11.975Z,-5.60
2023-02-05T03:20:46.158Z,-5.50
2023-02-05T03:23:14.506Z,-5.30
2023-02-05T03:25:42.966Z,-5.30
2023-02-05T03:28:12.023Z,-5.20
2023-02-05T03:30:54.234Z,-5.30
2023-02-05T03:33:40.653Z,-5.30
2023-02-05T03:36:17.198Z,-5.20
2023-02-05T03:38:57.414Z,-5.20
2023-02-05T03:41:50.121Z,-5.20
2023-02-05T03:44:29.054Z,-5.10
2023-02-05T03:47:02.999Z,-5.10
2023-02-05T03:49:43.380Z,-5.10
2023-02-05T03:52:17.291Z,-5.10
2023-02-05T03:54:52.987Z,-5.10
2023-02-05T03:57:25.880Z,-5.00
2023-02-05T03:59:54.899Z,-5.00
2023-02-05T04:02:24.764Z,-4.90
2023-02-05T04:04:53.323Z,-4.90
2023-02-05T04:07:21.532Z,-4.80
2023-02-05T04:09:50.299Z,-4.70
2023-02-05T04:12:18.569Z,-4.60
2023-02-05T04:14:46.869Z,-4.60
2023-02-05T04:17:15.153Z,-4.60
2023-02-05T04:19:44.846Z,-4.60
2023-02-05T04:22:13.008Z,-4.60
2023-02-05T04:24:41.330Z,-4.50
2023-02-05T04:27:09.594Z,-4.40
2023-02-05T04:29:37.720Z,-4.30
2023-02-05T04:32:06.513Z,-4.30
2023-02-05T04:34:34.877Z,-4.40
2023-02-05T04:37:04.534Z,-4.40
2023-02-05T04:39:32.808Z,-4.40
2023-02-05T04:42:01.973Z,-4.50
2023-02-05T04:44:30.326Z,-4.40
2023-02-05T04:46:59.671Z,-4.40
2023-02-05T04:49:28.284Z,-4.40
2023-02-05T04:51:56.484Z,-4.30
2023-02-05T04:54:28.307Z,-4.30
2023-02-05T04:56:56.955Z,-4.20
2023-02-05T04:59:25.141Z,-4.20
2023-02-05T05:01:53.459Z,-4.10
2023-02-05T05:04:21.708Z,-4.10
2023-02-05T05:06:49.927Z,-4.10
2023-02-05T05:09:20.901Z,-3.90
2023-02-05T05:11:50.682Z,-3.90
2023-02-05T05:14:19.393Z,-3.80
2023-02-05T05:16:47.653Z,-3.70
2023-02-05T05:19:16.166Z,-3.70
2023-02-05T05:21:44.415Z,-3.70
2023-02-05T05:24:12.676Z,-3.70
2023-02-05T05:26:43.997Z,-3.60
2023-02-05T05:29:14.556Z,-3.60
2023-02-05T05:31:43.250Z,-3.60
2023-02-05T05:34:11.728Z,-3.70
2023-02-05T05:36:43.636Z,-3.70
2023-02-05T05:39:30.080Z,-3.70
2023-02-05T05:42:15.771Z,-3.70
2023-02-05T05:44:50.175Z,-3.60
2023-02-05T05:47:18.428Z,-3.60
2023-02-05T05:49:46.610Z,-3.50
2023-02-05T05:52:15.688Z,-3.60
2023-02-05T05:54:43.906Z,-3.60
2023-02-05T05:57:12.068Z,-3.60
2023-02-05T05:59:40.531Z,-3.50
2023-02-05T06:02:10.556Z,-3.50
2023-02-05T06:04:38.690Z,-3.50
2023-02-05T06:07:07.056Z,-3.50
2023-02-05T06:09:35.365Z,-3.40
2023-02-05T06:12:03.630Z,-3.40
2023-02-05T06:14:32.205Z,-3.40
2023-02-05T06:17:00.798Z,-3.40
2023-02-05T06:19:30.496Z,-3.30
2023-02-05T06:21:59.029Z,-3.30
2023-02-05T06:24:30.099Z,-3.30
2023-02-05T06:26:59.062Z,-3.20
2023-02-05T06:29:27.678Z,-3.20
2023-02-05T06:31:55.983Z,-3.20
2023-02-05T06:34:24.223Z,-3.30
2023-02-05T06:36:53.830Z,-3.30
2023-02-05T06:39:23.752Z,-3.20
2023-02-05T06:41:53.283Z,-3.20
2023-02-05T06:44:22.144Z,-3.10
2023-02-05T06:46:50.844Z,-3.10
2023-02-05T06:49:19.053Z,-3.10
2023-02-05T06:51:47.390Z,-3.00
2023-02-05T06:54:17.423Z,-2.90
2023-02-05T06:56:45.652Z,-2.90
2023-02-05T06:59:14.244Z,-2.90
2023-02-05T07:01:42.598Z,-2.70
2023-02-05T07:04:10.750Z,-2.70
2023-02-05T07:06:39.267Z,-2.60
2023-02-05T07:09:08.159Z,-2.60
2023-02-05T07:11:37.844Z,-2.70
2023-02-05T07:14:06.462Z,-2.70
2023-02-05T07:16:35.084Z,-2.70
2023-02-05T07:19:03.286Z,-2.70
2023-02-05T07:21:31.715Z,-2.60
2023-02-05T07:24:00.083Z,-2.50
2023-02-05T07:26:28.178Z,-2.50
2023-02-05T07:28:58.343Z,-2.50
2023-02-05T07:31:27.132Z,-2.40
2023-02-05T07:33:55.427Z,-2.40
2023-02-05T07:36:23.917Z,-2.30
2023-02-05T07:38:52.236Z,-2.30
2023-02-05T07:41:20.456Z,-2.20
2023-02-05T07:43:52.057Z,-2.20
2023-02-05T07:46:23.152Z,-2.10
2023-02-05T07:48:51.448Z,-2.00
2023-02-05T07:51:21.548Z,-2.00
2023-02-05T07:53:50.328Z,-1.90
2023-02-05T07:56:21.659Z,-1.90
2023-02-05T07:58:50.822Z,-1.80
2023-02-05T08:01:19.142Z,-1.80
2023-02-05T08:03:48.699Z,-1.80
2023-02-05T08:06:18.036Z,-1.70
2023-02-05T08:08:46.244Z,-1.70
2023-02-05T08:11:16.402Z,-1.70
2023-02-05T08:13:45.613Z,-1.60
2023-02-05T08:16:15.764Z,-1.60
2023-02-05T08:18:44.523Z,-1.50
2023-02-05T08:21:14.449Z,-1.60
2023-02-05T08:23:42.609Z,-1.60
2023-02-05T08:26:10.771Z,-1.50
2023-02-05T08:28:39.501Z,-1.50
2023-02-05T08:31:12.510Z,-1.40
2023-02-05T08:33:41.516Z,-1.40
2023-02-05T08:36:10.510Z,-1.40
2023-02-05T08:38:40.144Z,-1.40
2023-02-05T08:41:12.673Z,-1.30
2023-02-05T08:43:42.797Z,-1.30
2023-02-05T08:46:12.396Z,-1.20
2023-02-05T08:48:41.187Z,-1.20
2023-02-05T08:51:10.838Z,-1.20
2023-02-05T08:53:41.031Z,-1.10
2023-02-05T08:56:11.065Z,-1.10
2023-02-05T08:58:40.225Z,-1.10
2023-02-05T09:01:10.741Z,-1.10
2023-02-05T09:03:39.522Z,-1.00
2023-02-05T09:06:09.717Z,-1.00
2023-02-05T09:08:40.002Z,-0.90
2023-02-05T09:11:09.592Z,-0.90
2023-02-05T09:13:38.205Z,-0.90
2023-02-05T09:16:06.804Z,-0.90
2023-02-05T09:18:35.191Z,-0.90
2023-02-05T09:21:08.058Z,-0.90
2023-02-05T09:23:37.125Z,-0.90
2023-02-05T09:26:07.082Z,-0.90
2023-02-05T09:28:35.384Z,-1.00
2023-02-05T09:31:08.624Z,-1.10
2023-02-05T09:33:37.054Z,-1.10
2023-02-05T09:36:09.819Z,-1.10
2023-02-05T09:38:38.194Z,-1.00
2023-02-05T09:41:15.809Z,-1.00
2023-02-05T09:43:52.684Z,-1.00
2023-02-05T09:46:28.940Z,-1.00
2023-02-05T09:49:01.811Z,-1.00
2023-02-05T09:51:36.195Z,-1.00
2023-02-05T09:54:12.703Z,-0.90
2023-02-05T09:56:44.127Z,-0.90
2023-02-05T09:59:17.170Z,-0.90
2023-02-05T10:01:52.350Z,-0.80
2023-02-05T10:04:21.774Z,-0.80
2023-02-05T10:07:25.625Z,-0.70
2023-02-05T10:10:18.786Z,-0.70
2023-02-05T10:13:02.294Z,-0.60
2023-02-05T10:15:48.614Z,-0.70
2023-02-05T10:18:25.230Z,-0.70
2023-02-05T10:21:05.530Z,-0.80
2023-02-05T10:23:54.319Z,-0.80
2023-02-05T10:26:26.206Z,-0.90
2023-02-05T10:29:29.062Z,-0.90
2023-02-05T10:32:10.882Z,-0.90
2023-02-05T10:34:56.770Z,-0.90
2023-02-05T10:37:36.538Z,-0.90
2023-02-05T10:40:14.729Z,-0.90
2023-02-05T10:42:47.683Z,-0.90
2023-02-05T10:45:21.398Z,-0.90
2023-02-05T10:48:14.980Z,-0.90
2023-02-05T10:50:54.752Z,-0.90
2023-02-05T10:53:26.253Z,-0.80
2023-02-05T10:55:54.790Z,-0.80
2023-02-05T10:58:44.767Z,-0.80
2023-02-05T11:01:17.523Z,-0.80
2023-02-05T11:03:55.326Z,-0.80
2023-02-05T11:06:27.157Z,-0.80
2023-02-05T11:08:55.816Z,-0.70
2023-02-05T11:11:28.116Z,-0.70
2023-02-05T11:13:58.751Z,-0.60
2023-02-05T11:16:39.583Z,-0.60
2023-02-05T11:19:20.322Z,-0.60
2023-02-05T11:21:51.763Z,-0.50
2023-02-05T11:24:32.657Z,-0.40
2023-02-05T11:27:30.628Z,-0.40
2023-02-05T11:30:17.831Z,-0.40
2023-02-05T11:32:48.238Z,-0.30
2023-02-05T11:35:23.227Z,-0.30
2023-02-05T11:38:00.655Z,-0.20
2023-02-05T11:40:32.346Z,-0.10
2023-02-05T11:43:04.991Z,-0.10
2023-02-05T11:45:35.666Z,0.00
2023-02-05T11:48:08.879Z,0.00
2023-02-05T11:50:37.104Z,0.00
2023-02-05T11:53:16.488Z,-0.10
2023-02-05T11:55:45.526Z,0.00
2023-02-05T11:58:36.149Z,0.00
2023-02-05T12:01:07.609Z,0.00
2023-02-05T12:03:38.321Z,0.00
2023-02-05T12:06:16.723Z,0.00
2023-02-05T12:08:49.496Z,-0.10
2023-02-05T12:12:04.203Z,-0.10
2023-02-05T12:14:42.580Z,-0.20
2023-02-05T12:17:28.266Z,-0.10
2023-02-05T12:20:06.986Z,-0.10
2023-02-05T12:22:53.303Z,-0.10
2023-02-05T12:25:27.686Z,0.00
2023-02-05T12:28:13.973Z,0.00
2023-02-05T12:30:53.972Z,0.00
2023-02-05T12:33:44.852Z,0.00
2023-02-05T12:36:27.291Z,-0.10
2023-02-05T12:39:06.848Z,-0.10
2023-02-05T12:41:42.883Z,0.00
2023-02-05T12:44:23.533Z,0.00
2023-02-05T12:47:04.845Z,0.00
2023-02-05T12:49:45.927Z,0.00
2023-02-05T12:52:26.767Z,0.00
2023-02-05T12:55:10.044Z,-0.10
2023-02-05T12:57:44.298Z,-0.10
2023-02-05T13:00:19.666Z,-0.10
2023-02-05T13:02:55.929Z,-0.10
2023-02-05T13:05:28.889Z,0.00
2023-02-05T13:08:05.653Z,-0.10
2023-02-05T13:10:45.759Z,0.00
2023-02-05T13:13:19.061Z,-0.10
2023-02-05T13:15:53.146Z,-0.10
2023-02-05T13:18:24.981Z,-0.10
2023-02-05T13:21:15.140Z,-0.10
2023-02-05T13:24:04.236Z,-0.10
2023-02-05T13:26:54.870Z,-0.10
2023-02-05T13:29:27.997Z,-0.20
2023-02-05T13:32:04.295Z,-0.20
2023-02-05T13:34:41.534Z,-0.20
2023-02-05T13:37:27.257Z,-0.20
2023-02-05T13:40:36.934Z,-0.20
2023-02-05T13:43:38.188Z,-0.20
2023-02-05T13:46:33.119Z,-0.20
2023-02-05T13:49:31.084Z,-0.20
2023-02-05T13:52:30.340Z,-0.20
2023-02-05T13:55:24.581Z,-0.20
2023-02-05T13:58:19.870Z,-0.20
2023-02-05T14:01:03.255Z,-0.20
2023-02-05T14:03:35.780Z,-0.20
2023-02-05T14:06:17.306Z,-0.20
2023-02-05T14:08:46.140Z,-0.20
2023-02-05T14:11:15.820Z,-0.20
2023-02-05T14:13:44.039Z,-0.20
2023-02-05T14:16:35.543Z,-0.20
2023-02-05T14:19:18.217Z,-0.10
2023-02-05T14:22:12.854Z,-0.20
2023-02-05T14:24:44.124Z,-0.10
2023-02-05T14:27:52.475Z,-0.10
2023-02-05T14:30:48.993Z,-0.10
2023-02-05T14:33:38.516Z,-0.10
2023-02-05T14:36:33.230Z,-0.10
2023-02-05T14:39:07.937Z,0.00
2023-02-05T14:41:50.724Z,-0.10
2023-02-05T14:44:26.508Z,-0.10
2023-02-05T14:47:03.061Z,0.00
2023-02-05T14:49:40.705Z,0.00
2023-02-05T14:52:22.533Z,0.00
2023-02-05T14:54:59.518Z,0.00
2023-02-05T14:57:32.371Z,0.00
2023-02-05T15:00:07.164Z,-0.10
2023-02-05T15:03:26.314Z,-0.10
2023-02-05T15:06:02.087Z,-0.10
2023-02-05T15:08:51.366Z,-0.20
2023-02-05T15:11:28.667Z,-0.20
2023-02-05T15:14:44.590Z,-0.30
2023-02-05T15:17:43.842Z,-0.40
2023-02-05T15:20:27.411Z,-0.40
2023-02-05T15:23:02.935Z,-0.50
2023-02-05T15:25:37.104Z,-0.60
2023-02-05T15:28:10.857Z,-0.60
2023-02-05T15:30:51.298Z,-0.70
2023-02-05T15:33:28.780Z,-0.80
2023-02-05T15:36:00.122Z,-0.80
2023-02-05T15:38:35.934Z,-0.80
2023-02-05T15:41:08.581Z,-0.70
2023-02-05T15:43:37.190Z,-0.70
2023-02-05T15:46:08.228Z,-0.70
2023-02-05T15:48:41.568Z,-0.60
2023-02-05T15:51:22.964Z,-0.60
2023-02-05T15:53:53.008Z,-0.50
2023-02-05T15:56:26.460Z,-0.50
2023-02-05T15:58:59.450Z,-0.50
2023-02-05T16:01:31.336Z,-0.50
2023-02-05T16:04:00.063Z,-0.50
2023-02-05T16:06:31.536Z,-0.50
2023-02-05T16:09:00.100Z,-0.50
2023-02-05T16:11:30.748Z,-0.50
2023-02-05T16:14:13.652Z,-0.50
2023-02-05T16:16:45.948Z,-0.50
2023-02-05T16:19:23.455Z,-0.50
2023-02-05T16:21:59.890Z,-0.60
2023-02-05T16:24:33.588Z,-0.60
2023-02-05T16:27:06.587Z,-0.70
2023-02-05T16:29:47.649Z,-0.70
2023-02-05T16:32:25.257Z,-0.70
2023-02-05T16:34:53.947Z,-0.80
2023-02-05T16:37:28.274Z,-0.90
2023-02-05T16:39:58.214Z,-0.90
2023-02-05T16:42:35.041Z,-1.00
2023-02-05T16:45:24.453Z,-1.10
2023-02-05T16:48:25.488Z,-1.10
2023-02-05T16:50:53.730Z,-1.10
2023-02-05T16:53:26.807Z,-1.20
2023-02-05T16:55:59.304Z,-1.20
2023-02-05T16:58:29.794Z,-1.20
2023-02-05T17:01:00.748Z,-1.20
2023-02-05T17:03:35.371Z,-1.30
2023-02-05T17:06:06.147Z,-1.30
2023-02-05T17:08:38.506Z,-1.40
2023-02-05T17:11:28.381Z,-1.50
2023-02-05T17:14:13.387Z,-1.60
2023-02-05T17:16:43.554Z,-1.70
2023-02-05T17:19:24.791Z,-1.80
2023-02-05T17:22:20.502Z,-1.90
2023-02-05T17:24:52.087Z,-2.00
2023-02-05T17:27:29.017Z,-2.00
2023-02-05T17:29:57.497Z,-1.90
2023-02-05T17:32:27.615Z,-1.90
2023-02-05T17:34:56.020Z,-1.80
2023-02-05T17:37:24.196Z,-1.70
2023-02-05T17:39:55.571Z,-1.80
2023-02-05T17:42:24.907Z,-1.80
2023-02-05T17:44:54.562Z,-1.80
2023-02-05T17:47:22.861Z,-1.80
2023-02-05T17:49:51.058Z,-1.70
2023-02-05T17:52:19.771Z,-1.70
2023-02-05T17:54:47.939Z,-1.60
2023-02-05T17:57:19.701Z,-1.60
2023-02-05T17:59:48.859Z,-1.70
2023-02-05T18:02:17.452Z,-1.60
2023-02-05T18:04:46.525Z,-1.70
2023-02-05T18:07:20.836Z,-1.60
2023-02-05T18:09:49.545Z,-1.50
2023-02-05T18:12:19.372Z,-1.50
2023-02-05T18:14:47.588Z,-1.50
2023-02-05T18:17:15.909Z,-1.50
2023-02-05T18:19:44.815Z,-1.50
2023-02-05T18:22:14.899Z,-1.40
2023-02-05T18:24:43.123Z,-1.40
2023-02-05T18:27:12.303Z,-1.40
2023-02-05T18:29:43.765Z,-1.30
2023-02-05T18:32:12.650Z,-1.30
2023-02-05T18:34:41.087Z,-1.30
2023-02-05T18:37:09.343Z,-1.30
2023-02-05T18:39:37.951Z,-1.20
2023-02-05T18:42:06.350Z,-1.10
2023-02-05T18:44:34.832Z,-1.20
2023-02-05T18:47:06.003Z,-1.20
2023-02-05T18:49:34.518Z,-1.20
2023-02-05T18:52:03.084Z,-1.20
2023-02-05T18:54:33.710Z,-1.20
2023-02-05T18:57:01.888Z,-1.10
2023-02-05T18:59:30.086Z,-1.10
2023-02-05T19:01:58.755Z,-1.10
2023-02-05T19:04:32.889Z,-1.00
2023-02-05T19:07:01.767Z,-0.90
2023-02-05T19:09:32.645Z,-0.90
2023-02-05T19:12:00.938Z,-0.90
2023-02-05T19:14:29.772Z,-0.90
2023-02-05T19:16:57.905Z,-0.90
2023-02-05T19:19:27.739Z,-0.90
2023-02-05T19:21:59.922Z,-0.90
2023-02-05T19:24:28.246Z,-1.00
2023-02-05T19:26:59.105Z,-1.00
2023-02-05T19:29:28.867Z,-1.10
2023-02-05T19:31:58.620Z,-1.20
2023-02-05T19:34:29.031Z,-1.20
2023-02-05T19:36:57.247Z,-1.20
2023-02-05T19:39:25.587Z,-1.10
2023-02-05T19:41:53.962Z,-1.10
2023-02-05T19:44:22.188Z,-1.10
2023-02-05T19:46:51.092Z,-1.10
2023-02-05T19:49:21.076Z,-1.10
2023-02-05T19:51:54.251Z,-1.10
2023-02-05T19:54:22.817Z,-1.10
2023-02-05T19:56:51.506Z,-1.10
2023-02-05T19:59:21.049Z,-1.10
2023-02-05T20:01:49.982Z,-1.10
2023-02-05T20:04:24.779Z,-1.10
2023-02-05T20:06:58.253Z,-1.10
2023-02-05T20:09:27.415Z,-1.20
2023-02-05T20:11:55.744Z,-1.20
2023-02-05T20:14:25.085Z,-1.30
2023-02-05T20:16:53.718Z,-1.30
2023-02-05T20:19:22.241Z,-1.40
2023-02-05T20:21:50.897Z,-1.50
2023-02-05T20:24:20.634Z,-1.60
2023-02-05T20:26:49.406Z,-1.60
2023-02-05T20:29:35.461Z,-1.60
2023-02-05T20:32:03.817Z,-1.70
2023-02-05T20:34:34.651Z,-1.80
2023-02-05T20:37:05.754Z,-1.90
2023-02-05T20:39:39.738Z,-2.00
2023-02-05T20:42:08.120Z,-2.10
2023-02-05T20:44:37.188Z,-2.20
2023-02-05T20:47:05.886Z,-2.30
2023-02-05T20:49:35.711Z,-2.20
2023-02-05T20:52:04.277Z,-2.20
2023-02-05T20:54:32.584Z,-2.20
2023-02-05T20:57:02.472Z,-2.20
2023-02-05T20:59:32.863Z,-2.20
2023-02-05T21:02:02.579Z,-2.30
2023-02-05T21:04:31.258Z,-2.30
2023-02-05T21:06:59.680Z,-2.10
2023-02-05T21:09:28.373Z,-2.00
2023-02-05T21:11:56.630Z,-2.00
2023-02-05T21:14:26.228Z,-2.00
2023-02-05T21:16:54.503Z,-1.90
2023-02-05T21:19:23.150Z,-1.90
2023-02-05T21:21:52.180Z,-1.80
2023-02-05T21:24:21.326Z,-1.80
2023-02-05T21:26:50.376Z,-1.80
2023-02-05T21:29:20.442Z,-1.70
2023-02-05T21:31:53.037Z,-1.60
2023-02-05T21:34:23.402Z,-1.70
2023-02-05T21:36:52.647Z,-1.70
2023-02-05T21:39:21.455Z,-1.70
2023-02-05T21:41:51.205Z,-1.70
2023-02-05T21:44:19.524Z,-1.70
2023-02-05T21:46:49.618Z,-1.60
2023-02-05T21:49:17.882Z,-1.70
2023-02-05T21:51:48.071Z,-1.80
2023-02-05T21:54:16.398Z,-1.80
2023-02-05T21:56:45.141Z,-1.70
2023-02-05T21:59:15.520Z,-1.70
2023-02-05T22:01:44.463Z,-1.70
2023-02-05T22:04:16.066Z,-1.70
2023-02-05T22:06:45.266Z,-1.70
2023-02-05T22:09:14.899Z,-1.80
2023-02-05T22:11:43.304Z,-1.90
2023-02-05T22:14:12.244Z,-2.00
2023-02-05T22:16:40.668Z,-2.00
2023-02-05T22:19:09.062Z,-2.10
2023-02-05T22:21:40.428Z,-2.10
2023-02-05T22:24:11.942Z,-2.20
2023-02-05T22:26:41.930Z,-2.20
2023-02-05T22:29:13.498Z,-2.30
2023-02-05T22:31:42.818Z,-2.30
2023-02-05T22:34:11.225Z,-2.40
2023-02-05T22:36:40.672Z,-2.30
2023-02-05T22:39:09.550Z,-2.30
2023-02-05T22:41:39.987Z,-2.30
2023-02-05T22:44:09.477Z,-2.10
2023-02-05T22:46:39.976Z,-2.10
2023-02-05T22:49:08.953Z,-2.00
2023-02-05T22:51:39.755Z,-1.80
2023-02-05T22:54:12.776Z,-1.80
2023-02-05T22:56:41.099Z,-1.80
2023-02-05T22:59:09.285Z,-1.80
2023-02-05T23:01:39.602Z,-1.80
2023-02-05T23:04:09.668Z,-1.70
2023-02-05T23:06:39.876Z,-1.60
2023-02-05T23:09:12.440Z,-1.60
2023-02-05T23:11:40.911Z,-1.60
2023-02-05T23:14:10.147Z,-1.60
2023-02-05T23:16:41.230Z,-1.70
2023-02-05T23:19:11.980Z,-1.60
2023-02-05T23:21:41.347Z,-1.60
2023-02-05T23:24:11.189Z,-1.60
2023-02-05T23:26:42.338Z,-1.60
2023-02-05T23:29:11.651Z,-1.60
2023-02-05T23:31:40.208Z,-1.60
2023-02-05T23:34:08.475Z,-1.60
2023-02-05T23:36:37.064Z,-1.70
2023-02-05T23:39:05.610Z,-1.70
2023-02-05T23:41:39.842Z,-1.80
2023-02-05T23:44:11.801Z,-1.80
2023-02-05T23:46:41.352Z,-1.90
2023-02-05T23:49:11.046Z,-2.00
2023-02-05T23:51:40.025Z,-2.00
2023-02-05T23:54:09.817Z,-2.00
2023-02-05T23:56:39.711Z,-2.00
2023-02-05T23:59:09.414Z,-2.00
